Time;durP1;ratioP1;P1;durP2;ratioP2;P2;SDS_P1;SDS_P2;PMS_P1;PMS_P2;Temp;Humidity;BMP_temperature;BMP_pressure;BME280_temperature;BME280_humidity;BME280_pressure;Samples;Min_cycle;Max_cycle;Signal;HPM_P1;HPM_P2
2021/04/25 07:47:52;;;;;;;7.92;4.08;;;;;;;17.58;29.11;99255.53;1823943;77;22221;-57
2021/04/25 07:50:20;;;;;;;6.55;4.12;;;;;;;17.29;29.61;99261.53;1797981;78;21165;-61
2021/04/25 07:52:48;;;;;;;6.90;3.87;;;;;;;16.79;30.48;99260.30;1803666;78;21471;-60
2021/04/25 07:55:16;;;;;;;7.42;4.35;;;;;;;16.85;31.24;99258.52;1787573;79;21390;-61
2021/04/25 07:57:44;;;;;;;6.78;4.28;;;;;;;16.44;31.65;99254.95;1793097;79;21106;-58
2021/04/25 08:00:16;;;;;;;6.00;3.72;;;;;;;15.49;32.90;99255.48;1799238;78;21299;-60
2021/04/25 08:02:46;;;;;;;8.78;4.30;;;;;;;14.82;34.12;99245.72;1788521;78;21712;-60
2021/04/25 08:05:16;;;;;;;11.83;4.97;;;;;;;14.76;34.82;99247.05;1801298;78;21154;-61
2021/04/25 08:07:47;;;;;;;7.37;4.05;;;;;;;15.04;34.79;99237.89;1792418;78;21192;-59
2021/04/25 08:10:14;;;;;;;8.03;4.55;;;;;;;15.14;34.60;99230.50;1744792;81;21138;-62
2021/04/25 08:12:44;;;;;;;9.25;4.33;;;;;;;15.00;34.80;99229.22;1772280;80;21260;-62
2021/04/25 08:15:13;;;;;;;9.03;4.20;;;;;;;15.43;34.58;99226.92;1752276;80;21730;-63
2021/04/25 08:17:40;;;;;;;9.78;4.12;;;;;;;15.38;34.43;99223.89;1749538;80;21165;-60
2021/04/25 08:20:11;;;;;;;7.90;4.30;;;;;;;15.15;34.66;99224.42;1741529;80;21133;-61
2021/04/25 08:22:39;;;;;;;9.15;4.08;;;;;;;14.60;35.52;99222.80;1742632;81;21201;-65
2021/04/25 08:25:08;;;;;;;8.80;4.53;;;;;;;14.38;36.04;99229.72;1740511;82;21120;-64
2021/04/25 08:27:37;;;;;;;10.03;5.28;;;;;;;14.70;35.83;99219.76;1738541;81;21315;-64
2021/04/25 08:30:07;;;;;;;7.90;4.58;;;;;;;15.04;35.58;99219.70;1734743;81;21138;-64
2021/04/25 08:32:35;;;;;;;9.30;5.35;;;;;;;16.02;34.46;99217.93;1743675;80;21159;-64
2021/04/25 08:35:06;;;;;;;8.35;4.60;;;;;;;17.01;33.36;99210.98;1723012;82;21370;-65
2021/04/25 08:37:34;;;;;;;8.05;5.03;;;;;;;17.25;32.73;99202.44;1755048;80;21323;-69
2021/04/25 08:40:05;;;;;;;9.18;4.47;;;;;;;17.36;32.47;99205.80;1753801;81;21165;-64
2021/04/25 08:42:33;;;;;;;8.50;4.70;;;;;;;16.90;32.32;99195.91;1755478;81;21157;-65
2021/04/25 08:45:02;;;;;;;8.80;5.20;;;;;;;16.33;33.14;99207.27;1749105;81;21146;-66
2021/04/25 08:47:31;;;;;;;6.80;4.00;;;;;;;16.26;33.52;99207.78;1737288;81;21139;-66
2021/04/25 08:50:01;;;;;;;8.20;4.05;;;;;;;15.90;33.62;99198.48;1756878;81;21161;-63
2021/04/25 08:52:30;;;;;;;8.33;4.33;;;;;;;15.27;33.94;99203.58;1757092;81;21181;-61
2021/04/25 08:54:58;;;;;;;7.90;4.12;;;;;;;14.61;34.46;99211.56;1740255;81;21589;-63
2021/04/25 08:57:26;;;;;;;7.40;4.10;;;;;;;13.84;35.63;99206.73;1738194;81;21173;-62
2021/04/25 08:59:54;;;;;;;9.75;5.62;;;;;;;13.31;36.84;99204.89;1742729;81;21141;-59
2021/04/25 09:02:22;;;;;;;12.78;5.70;;;;;;;12.91;38.68;99199.48;1738318;81;21166;-60
2021/04/25 09:04:50;;;;;;;9.38;5.72;;;;;;;12.51;40.43;99199.23;1732422;81;21163;-59
2021/04/25 09:07:18;;;;;;;9.48;5.58;;;;;;;12.27;41.67;99189.14;1752779;81;21233;-58
2021/04/25 09:09:56;;;;;;;13.30;5.62;;;;;;;12.14;42.23;99192.50;1744128;81;21146;-59
2021/04/25 09:12:43;;;;;;;8.95;5.25;;;;;;;12.15;42.50;99200.25;1734442;81;21140;-60
2021/04/25 09:15:18;;;;;;;9.68;5.45;;;;;;;12.11;42.95;99198.91;1755139;80;21291;-61
2021/04/25 09:17:59;;;;;;;9.80;6.03;;;;;;;11.86;43.44;99200.00;1727736;81;21287;-60
2021/04/25 09:20:47;;;;;;;11.75;5.87;;;;;;;11.70;43.97;99200.25;1731499;81;21295;-60
2021/04/25 09:23:26;;;;;;;11.28;5.90;;;;;;;11.66;44.59;99189.43;1746105;80;21157;-60
2021/04/25 09:26:01;;;;;;;12.93;5.80;;;;;;;11.42;44.98;99187.86;1728838;82;21308;-60
2021/04/25 09:28:29;;;;;;;10.58;5.67;;;;;;;11.21;45.56;99196.24;1733135;81;21223;-59
2021/04/25 09:31:06;;;;;;;10.40;5.87;;;;;;;11.11;45.59;99191.81;1767411;80;21164;-61
2021/04/25 09:33:58;;;;;;;16.05;5.80;;;;;;;11.16;45.91;99178.53;1745996;81;21227;-61
2021/04/25 09:36:29;;;;;;;8.43;5.08;;;;;;;11.24;45.82;99184.22;1736289;82;21329;-61
2021/04/25 09:39:17;;;;;;;9.23;5.50;;;;;;;11.54;45.37;99187.14;1743810;81;21174;-61
2021/04/25 09:41:47;;;;;;;10.00;5.95;;;;;;;11.58;45.03;99179.88;1725928;82;21194;-60
2021/04/25 09:44:37;;;;;;;9.23;5.97;;;;;;;11.77;44.92;99174.45;1731675;82;21317;-60
2021/04/25 09:47:06;;;;;;;8.63;4.75;;;;;;;11.50;43.47;99171.61;1745780;81;21189;-60
2021/04/25 09:49:45;;;;;;;10.80;4.95;;;;;;;11.11;43.38;99160.81;1740354;81;21184;-59
2021/04/25 09:52:34;;;;;;;9.35;5.10;;;;;;;10.97;43.46;99165.83;1742782;81;21161;-60
2021/04/25 09:55:28;;;;;;;9.65;5.10;;;;;;;10.99;43.67;99172.75;1740378;81;21190;-59
2021/04/25 09:58:00;;;;;;;7.80;4.70;;;;;;;11.35;42.70;99175.72;1729362;81;21147;-60
2021/04/25 10:00:39;;;;;;;;;;;;;;;11.64;42.33;99170.87;1739243;81;21138;-61
2021/04/25 10:03:10;;;;;;;7.15;4.62;;;;;;;11.97;41.64;99151.39;1740728;81;20146;-60
2021/04/25 10:05:41;;;;;;;;;;;;;;;12.22;41.24;99161.08;1736097;82;21592;-60
2021/04/25 10:08:12;;;;;;;9.20;4.50;;;;;;;12.28;40.41;99158.52;1730622;82;20256;-61
2021/04/25 10:10:46;;;;;;;8.50;4.75;;;;;;;12.12;41.10;99157.55;1712402;80;21350;-60
2021/04/25 10:13:14;;;;;;;7.72;4.37;;;;;;;12.09;41.42;99156.67;1753817;81;21168;-60
2021/04/25 10:15:41;;;;;;;8.95;4.58;;;;;;;11.95;41.41;99149.64;1752941;81;21164;-60
2021/04/25 10:18:09;;;;;;;7.65;4.00;;;;;;;11.51;41.91;99149.21;1759681;81;21198;-59
2021/04/25 10:20:38;;;;;;;8.63;4.60;;;;;;;11.19;42.42;99143.69;1774985;80;21171;-61
2021/04/25 10:23:07;;;;;;;9.25;4.60;;;;;;;11.02;42.49;99135.33;1761708;81;21180;-60
2021/04/25 10:25:37;;;;;;;9.20;4.80;;;;;;;11.00;42.96;99140.04;1761200;81;21169;-61
2021/04/25 10:28:20;;;;;;;10.63;5.25;;;;;;;11.05;43.43;99152.15;1760205;81;21311;-61
2021/04/25 10:30:48;;;;;;;10.08;4.40;;;;;;;11.33;43.23;99155.05;1708642;81;21308;-61
2021/04/25 10:33:16;;;;;;;10.10;4.72;;;;;;;11.65;42.71;99141.58;1761314;81;21180;-58
2021/04/25 10:35:56;;;;;;;8.60;4.72;;;;;;;11.59;42.46;99155.75;1752753;81;21228;-61
2021/04/25 10:38:38;;;;;;;9.05;4.50;;;;;;;11.63;42.58;99153.22;1732136;81;21173;-60
2021/04/25 10:41:27;;;;;;;8.38;4.87;;;;;;;11.77;42.18;99152.03;1732168;82;22259;-60
2021/04/25 10:44:02;;;;;;;10.98;5.58;;;;;;;11.77;41.81;99148.16;1729527;81;21215;-59
2021/04/25 10:46:59;;;;;;;8.78;5.37;;;;;;;11.73;41.32;99151.16;1747798;80;21189;-59
2021/04/25 10:49:36;;;;;;;8.85;5.33;;;;;;;11.61;41.38;99152.76;1750439;80;21101;-58
2021/04/25 10:52:23;;;;;;;8.25;4.67;;;;;;;11.30;42.08;99149.86;1759608;81;21696;-59
2021/04/25 10:55:29;;;;;;;10.05;5.30;;;;;;;11.00;43.01;99143.48;1761142;80;21166;-58
2021/04/25 10:58:01;;;;;;;8.40;4.50;;;;;;;10.60;43.79;99153.28;1742136;80;21153;-60
2021/04/25 11:00:38;;;;;;;11.38;5.03;;;;;;;10.43;44.10;99147.01;1732067;81;21149;-59
2021/04/25 11:03:22;;;;;;;8.68;5.22;;;;;;;10.35;44.57;99149.91;1740560;80;21303;-59
2021/04/25 11:05:52;;;;;;;11.28;5.92;;;;;;;10.32;45.02;99150.73;1765330;81;21161;-58
2021/04/25 11:08:39;;;;;;;11.20;5.70;;;;;;;10.31;45.28;99158.46;1733493;81;21177;-59
2021/04/25 11:11:10;;;;;;;11.45;5.62;;;;;;;10.29;45.48;99160.15;1753204;81;21140;-59
2021/04/25 11:13:46;;;;;;;13.32;6.10;;;;;;;10.24;46.17;99155.30;1754888;81;21303;-58
2021/04/25 11:16:20;;;;;;;9.88;6.00;;;;;;;10.19;47.99;99161.25;1740778;81;21200;-58
2021/04/25 11:19:06;;;;;;;10.50;6.75;;;;;;;10.11;49.46;99149.95;1765026;81;21137;-58
2021/04/25 11:21:50;;;;;;;11.57;6.47;;;;;;;10.01;51.63;99155.80;1757393;81;21153;-59
2021/04/25 11:24:30;;;;;;;12.80;6.10;;;;;;;9.91;52.97;99153.92;1734880;80;21592;-57
2021/04/25 11:27:02;;;;;;;10.90;5.83;;;;;;;9.86;53.95;99156.84;1734358;80;21149;-59
2021/04/25 11:29:51;;;;;;;11.00;5.97;;;;;;;9.83;54.52;99145.20;1756230;81;21768;-58
2021/04/25 11:32:28;;;;;;;13.68;6.33;;;;;;;9.84;54.59;99154.23;1757467;81;21137;-55
2021/04/25 11:35:04;;;;;;;12.13;6.33;;;;;;;9.94;55.26;99150.09;1765195;80;21102;-56
2021/04/25 11:37:32;;;;;;;9.70;5.92;;;;;;;10.11;55.60;99142.22;1769578;80;21295;-58
2021/04/25 11:40:07;;;;;;;12.55;7.12;;;;;;;10.30;55.17;99149.83;1759037;80;21205;-58
2021/04/25 11:42:50;;;;;;;11.38;6.10;;;;;;;10.57;55.05;99143.35;1771369;80;21731;-56
2021/04/25 11:45:27;;;;;;;13.83;6.90;;;;;;;10.84;54.21;99143.72;1767054;80;21316;-58
2021/04/25 11:48:02;;;;;;;10.88;5.95;;;;;;;10.87;53.51;99129.98;1779106;80;21422;-57
2021/04/25 11:50:36;;;;;;;9.38;6.00;;;;;;;10.92;52.74;99133.92;1791200;80;21565;-58
2021/04/25 11:53:04;;;;;;;9.00;5.35;;;;;;;10.99;52.27;99143.05;1784733;80;21144;-57
2021/04/25 11:55:34;;;;;;;11.55;6.47;;;;;;;11.01;52.21;99142.62;1763278;80;21129;-58
2021/04/25 11:58:02;;;;;;;11.70;5.95;;;;;;;11.08;52.35;99128.94;1781738;80;21303;-56
2021/04/25 12:00:35;;;;;;;9.95;5.40;;;;;;;11.06;52.18;99133.20;1763262;80;21141;-58
2021/04/25 12:03:05;;;;;;;11.50;5.58;;;;;;;11.01;52.15;99131.42;1765909;80;21226;-57
2021/04/25 12:05:38;;;;;;;12.43;5.70;;;;;;;10.91;52.69;99136.90;1778000;80;21168;-58
2021/04/25 12:08:10;;;;;;;14.05;5.78;;;;;;;10.78;53.33;99117.81;1763693;80;21592;-58
2021/04/25 12:10:47;;;;;;;10.93;6.17;;;;;;;10.67;53.73;99140.48;1762208;80;21155;-57
2021/04/25 12:13:21;;;;;;;10.90;5.97;;;;;;;10.68;54.88;99137.90;1764364;81;21307;-57
2021/04/25 12:15:58;;;;;;;9.65;6.00;;;;;;;10.76;55.10;99126.38;1764844;80;21182;-57
2021/04/25 12:18:40;;;;;;;11.33;5.70;;;;;;;10.94;55.41;99125.34;1761471;81;21127;-56
2021/04/25 12:21:15;;;;;;;13.98;6.22;;;;;;;10.97;55.42;99120.21;1760005;80;21177;-56
2021/04/25 12:23:54;;;;;;;9.55;6.15;;;;;;;10.87;54.79;99114.49;1768573;80;21300;-59
2021/04/25 12:26:25;;;;;;;8.98;5.55;;;;;;;10.67;55.13;99137.90;1760834;80;21298;-58
2021/04/25 12:28:56;;;;;;;9.35;6.33;;;;;;;10.52;55.68;99133.39;1770384;80;21588;-57
2021/04/25 12:31:30;;;;;;;11.10;6.65;;;;;;;10.45;55.18;99126.41;1759875;81;21257;-58
2021/04/25 12:33:58;;;;;;;9.58;5.60;;;;;;;10.41;55.40;99122.50;1758771;81;21153;-58
2021/04/25 12:36:29;;;;;;;10.38;5.70;;;;;;;10.46;55.09;99128.12;1750261;81;21145;-58
2021/04/25 12:39:05;;;;;;;10.60;5.95;;;;;;;10.57;54.96;99127.44;1751230;80;21292;-56
2021/04/25 12:41:52;;;;;;;11.18;6.08;;;;;;;10.69;54.57;99124.16;1783664;79;21192;-57
2021/04/25 12:44:36;;;;;;;13.32;6.00;;;;;;;10.76;54.00;99125.09;1777965;79;21314;-57
2021/04/25 12:47:04;;;;;;;10.38;5.50;;;;;;;10.76;54.21;99122.51;1762089;80;21174;-57
2021/04/25 12:49:37;;;;;;;10.05;5.37;;;;;;;10.74;54.01;99115.20;1759874;80;21209;-59
2021/04/25 12:52:08;;;;;;;12.07;6.08;;;;;;;10.72;54.00;99115.59;1765327;81;21297;-58
2021/04/25 12:54:44;;;;;;;10.68;5.78;;;;;;;10.74;54.00;99110.03;1764328;80;21213;-59
2021/04/25 12:57:12;;;;;;;9.10;5.47;;;;;;;10.60;54.18;99114.57;1763979;80;21166;-58
2021/04/25 12:59:42;;;;;;;9.80;5.97;;;;;;;10.48;54.46;99109.67;1759495;81;21170;-60
2021/04/25 13:02:13;;;;;;;12.05;6.50;;;;;;;10.31;54.83;99112.89;1764784;80;21287;-61
2021/04/25 13:04:50;;;;;;;9.88;5.10;;;;;;;10.25;55.11;99110.60;1763335;80;21174;-60
2021/04/25 13:07:32;;;;;;;10.15;5.97;;;;;;;10.21;55.75;99114.44;1764052;80;21307;-61
2021/04/25 13:10:13;;;;;;;10.13;6.05;;;;;;;10.20;55.64;99103.69;1763558;80;21296;-58
2021/04/25 13:12:52;;;;;;;10.70;6.03;;;;;;;10.28;55.55;99115.83;1763620;80;21129;-60
2021/04/25 13:15:41;;;;;;;10.85;6.67;;;;;;;10.33;55.72;99107.73;1761605;80;21161;-59
2021/04/25 13:18:14;;;;;;;10.38;6.33;;;;;;;10.39;55.79;99106.12;1780714;80;21309;-58
2021/04/25 13:20:52;;;;;;;13.53;7.03;;;;;;;10.45;55.91;99105.33;1776801;80;21156;-58
2021/04/25 13:23:25;;;;;;;9.90;6.62;;;;;;;10.27;56.13;99111.07;1773172;80;21298;-58
2021/04/25 13:25:58;;;;;;;10.93;6.45;;;;;;;9.98;56.55;99101.63;1771373;80;21165;-62
2021/04/25 13:28:30;;;;;;;12.82;6.58;;;;;;;9.66;57.18;99101.09;1789902;80;21205;-62
2021/04/25 13:31:05;;;;;;;11.75;6.80;;;;;;;9.49;58.00;99101.69;1764410;80;21611;-62
2021/04/25 13:33:35;;;;;;;12.95;6.53;;;;;;;9.51;58.42;99100.41;1774565;80;21635;-64
2021/04/25 13:36:06;;;;;;;11.68;7.12;;;;;;;9.63;58.35;99095.89;1780857;80;21300;-62
2021/04/25 13:38:34;;;;;;;13.35;7.00;;;;;;;9.81;58.35;99099.20;1790283;80;21158;-63
2021/04/25 13:41:04;;;;;;;12.80;6.97;;;;;;;9.94;58.07;99092.09;1792965;80;21281;-62
2021/04/25 13:43:32;;;;;;;10.20;6.47;;;;;;;9.98;57.81;99093.89;1776970;80;21328;-62
2021/04/25 13:46:01;;;;;;;12.07;6.25;;;;;;;9.83;57.65;99093.65;1787846;80;21213;-62
2021/04/25 13:48:31;;;;;;;12.80;6.70;;;;;;;9.73;57.98;99090.91;1782373;80;21161;-59
2021/04/25 13:51:00;;;;;;;11.33;6.42;;;;;;;9.66;58.18;99085.63;1774903;80;21153;-60
2021/04/25 13:53:28;;;;;;;12.65;6.72;;;;;;;9.47;58.74;99083.18;1790629;80;21141;-62
2021/04/25 13:55:58;;;;;;;11.08;6.05;;;;;;;9.34;58.94;99084.25;1793762;80;21305;-61
2021/04/25 13:58:26;;;;;;;11.97;7.00;;;;;;;9.26;59.34;99085.83;1723304;83;21339;-61
2021/04/25 14:00:56;;;;;;;10.85;6.20;;;;;;;9.11;59.60;99089.41;1723549;82;21577;-64
2021/04/25 14:03:24;;;;;;;11.55;7.60;;;;;;;9.06;60.09;99082.02;1729322;82;21153;-62
2021/04/25 14:05:52;;;;;;;9.85;5.72;;;;;;;9.08;60.12;99080.31;1731022;82;21198;-60
2021/04/25 14:08:21;;;;;;;10.25;6.05;;;;;;;9.28;59.89;99083.26;1723950;82;21298;-62
2021/04/25 14:10:49;;;;;;;10.38;6.25;;;;;;;9.51;59.57;99074.22;1726850;82;21415;-63
2021/04/25 14:13:18;;;;;;;12.18;6.72;;;;;;;9.82;59.03;99079.01;1719356;82;21180;-60
2021/04/25 14:15:46;;;;;;;11.03;5.83;;;;;;;9.95;58.47;99077.95;1721126;81;21160;-60
2021/04/25 14:18:16;;;;;;;12.28;7.35;;;;;;;10.05;58.17;99077.67;1740858;81;21674;-64
2021/04/25 14:20:44;;;;;;;10.40;6.00;;;;;;;10.17;57.83;99079.11;1742027;81;21130;-63
2021/04/25 14:23:12;;;;;;;10.08;5.92;;;;;;;10.20;56.99;99081.77;1762174;81;21174;-62
2021/04/25 14:25:40;;;;;;;9.58;5.80;;;;;;;10.21;56.72;99082.19;1777668;80;21154;-63
2021/04/25 14:28:09;;;;;;;11.45;6.78;;;;;;;10.10;56.63;99082.48;1741446;81;21138;-60
2021/04/25 14:30:36;;;;;;;10.00;6.00;;;;;;;9.97;56.90;99088.27;1741495;81;21323;-58
2021/04/25 14:33:05;;;;;;;10.98;5.40;;;;;;;9.93;57.07;99089.08;1732308;81;21314;-59
2021/04/25 14:35:34;;;;;;;12.53;5.15;;;;;;;9.92;56.70;99086.94;1723471;81;21264;-60
2021/04/25 14:38:03;;;;;;;9.95;6.15;;;;;;;9.89;56.51;99090.73;1756673;80;21174;-59
2021/04/25 14:40:31;;;;;;;12.25;5.97;;;;;;;9.84;56.88;99091.08;1745629;81;21296;-59
2021/04/25 14:43:04;;;;;;;9.28;6.10;;;;;;;9.73;56.22;99090.05;1747467;80;21196;-60
2021/04/25 14:45:30;;;;;;;7.75;5.25;;;;;;;9.63;56.59;99086.45;1733157;81;21125;-61
2021/04/25 14:48:00;;;;;;;8.25;5.00;;;;;;;9.55;56.48;99082.45;1733639;81;21322;-59
2021/04/25 14:50:34;;;;;;;11.20;5.05;;;;;;;9.32;56.58;99088.50;1749123;81;21213;-60
2021/04/25 14:53:03;;;;;;;8.38;5.00;;;;;;;9.13;57.85;99079.59;1727076;81;21156;-61
2021/04/25 14:55:32;;;;;;;9.35;4.80;;;;;;;8.88;58.68;99083.39;1728719;81;21171;-61
2021/04/25 14:58:01;;;;;;;8.58;5.15;;;;;;;8.69;59.87;99087.71;1733897;81;21305;-60
2021/04/25 15:00:30;;;;;;;9.48;5.72;;;;;;;8.66;60.21;99086.37;1736683;81;21272;-60
2021/04/25 15:02:58;;;;;;;7.83;4.83;;;;;;;8.64;60.85;99081.61;1763371;80;21154;-58
2021/04/25 15:05:26;;;;;;;10.35;4.95;;;;;;;8.57;60.98;99083.59;1725199;82;21548;-60
2021/04/25 15:07:55;;;;;;;8.90;5.72;;;;;;;8.43;61.17;99080.75;1730076;81;21341;-59
2021/04/25 15:10:25;;;;;;;8.43;5.45;;;;;;;8.33;61.88;99082.21;1735349;81;21264;-59
2021/04/25 15:12:55;;;;;;;10.85;5.78;;;;;;;8.25;62.52;99079.48;1726611;82;21300;-58
2021/04/25 15:15:24;;;;;;;8.15;5.78;;;;;;;8.18;63.11;99079.30;1739313;81;21291;-58
2021/04/25 15:17:52;;;;;;;10.13;6.12;;;;;;;8.20;63.97;99082.36;1720372;82;21263;-58
2021/04/25 15:20:20;;;;;;;9.23;6.03;;;;;;;8.25;64.14;99077.33;1740724;81;21280;-59
2021/04/25 15:22:51;;;;;;;10.08;5.80;;;;;;;8.34;64.75;99073.65;1734427;81;21300;-58
2021/04/25 15:25:20;;;;;;;11.68;6.42;;;;;;;8.42;65.46;99067.03;1732719;81;21279;-59
2021/04/25 15:27:48;;;;;;;10.58;6.58;;;;;;;8.45;65.45;99058.51;1728039;81;21283;-59
2021/04/25 15:30:19;;;;;;;9.08;6.17;;;;;;;8.46;66.13;99063.66;1774942;80;21342;-61
2021/04/25 15:32:52;;;;;;;11.80;6.47;;;;;;;8.44;66.46;99065.75;1766457;80;21605;-58
2021/04/25 15:35:22;;;;;;;11.22;6.45;;;;;;;8.43;66.61;99063.61;1758935;80;21121;-58
2021/04/25 15:37:52;;;;;;;11.20;5.42;;;;;;;8.41;67.03;99060.12;1753622;80;21149;-59
2021/04/25 15:40:26;;;;;;;10.20;6.10;;;;;;;8.46;67.73;99057.23;1757682;80;21540;-59
2021/04/25 15:42:54;;;;;;;;;;;;;;;8.51;67.77;99048.76;1765206;81;21302;-57
2021/04/25 15:45:22;;;;;;;7.90;5.75;;;;;;;8.52;67.61;99049.20;1762454;81;20250;-59
2021/04/25 15:47:51;;;;;;;12.80;7.15;;;;;;;8.57;68.55;99047.59;1763416;81;21160;-59
2021/04/25 15:50:20;;;;;;;10.50;7.25;;;;;;;8.59;68.64;99048.48;1763423;81;21181;-58
2021/04/25 15:52:48;;;;;;;13.20;7.50;;;;;;;8.56;68.17;99054.44;1762624;81;21571;-56
2021/04/25 15:55:16;;;;;;;13.45;8.13;;;;;;;8.48;68.16;99045.28;1762412;81;21160;-60
2021/04/25 15:57:45;;;;;;;12.03;8.38;;;;;;;8.43;68.10;99046.89;1762045;81;21165;-59
2021/04/25 16:00:15;;;;;;;15.95;8.73;;;;;;;8.38;68.45;99043.75;1763120;81;21308;-60
2021/04/25 16:02:44;;;;;;;16.73;10.50;;;;;;;8.34;68.69;99045.37;1762498;80;21160;-60
2021/04/25 16:05:17;;;;;;;15.75;9.83;;;;;;;8.30;68.89;99049.16;1762353;80;21619;-60
2021/04/25 16:07:50;;;;;;;19.70;11.18;;;;;;;8.25;69.45;99051.20;1759405;80;21114;-59
2021/04/25 16:10:23;;;;;;;17.00;9.93;;;;;;;8.20;69.87;99051.52;1760925;80;21552;-59
2021/04/25 16:12:53;;;;;;;22.37;12.63;;;;;;;8.13;70.32;99042.34;1762473;81;21729;-59
2021/04/25 16:15:22;;;;;;;20.92;12.18;;;;;;;8.10;70.92;99043.16;1759345;80;21188;-60
2021/04/25 16:17:52;;;;;;;16.45;9.78;;;;;;;8.12;71.29;99048.34;1760319;80;21143;-61
2021/04/25 16:20:20;;;;;;;20.35;11.38;;;;;;;8.17;71.85;99049.31;1741894;81;21141;-62
2021/04/25 16:22:48;;;;;;;15.90;10.48;;;;;;;8.21;71.71;99048.52;1732814;81;21253;-59
2021/04/25 16:25:16;;;;;;;16.50;10.50;;;;;;;8.18;71.60;99051.89;1754482;81;21192;-64
2021/04/25 16:27:44;;;;;;;22.45;10.50;;;;;;;8.15;71.57;99053.54;1742712;81;21599;-59
2021/04/25 16:30:16;;;;;;;18.67;10.90;;;;;;;8.14;71.92;99049.22;1742438;82;21192;-57
2021/04/25 16:32:46;;;;;;;16.17;9.80;;;;;;;8.12;71.68;99047.91;1741780;82;21174;-52
2021/04/25 16:35:16;;;;;;;15.72;9.25;;;;;;;8.09;71.42;99043.10;1741700;82;21176;-56
2021/04/25 16:37:45;;;;;;;18.48;10.00;;;;;;;8.05;71.43;99045.61;1724208;82;21585;-57
2021/04/25 16:40:15;;;;;;;18.75;10.15;;;;;;;8.01;71.43;99042.94;1724051;82;21181;-66
2021/04/25 16:42:48;;;;;;;16.07;9.98;;;;;;;7.97;71.43;99035.59;1740558;81;21208;-66
2021/04/25 16:45:19;;;;;;;18.10;10.65;;;;;;;7.92;71.62;99035.04;1734691;81;21176;-63
2021/04/25 16:47:47;;;;;;;17.07;10.15;;;;;;;7.90;71.54;99036.70;1743308;81;21150;-59
2021/04/25 16:50:15;;;;;;;16.48;11.45;;;;;;;7.84;71.62;99034.87;1743891;81;21304;-62
2021/04/25 16:52:44;;;;;;;19.20;12.37;;;;;;;7.80;71.75;99034.33;1739588;81;21164;-64
2021/04/25 16:55:13;;;;;;;19.45;12.05;;;;;;;7.77;71.99;99047.11;1742606;81;21311;-63
2021/04/25 16:57:44;;;;;;;18.90;11.40;;;;;;;7.75;72.21;99044.91;1742463;82;21307;-62
2021/04/25 17:00:14;;;;;;;16.48;10.20;;;;;;;7.73;72.29;99045.29;1740542;81;21308;-62
2021/04/25 17:02:45;;;;;;;17.92;10.88;;;;;;;7.74;72.57;99044.48;1742758;81;21244;-62
2021/04/25 17:05:15;;;;;;;20.75;10.40;;;;;;;7.78;72.42;99047.55;1740538;82;21146;-62
2021/04/25 17:07:44;;;;;;;18.98;11.12;;;;;;;7.79;72.20;99046.73;1741658;81;21137;-63
2021/04/25 17:10:15;;;;;;;19.37;10.63;;;;;;;7.77;71.95;99050.54;1741603;82;21200;-59
2021/04/25 17:12:43;;;;;;;22.60;11.70;;;;;;;7.78;71.81;99050.12;1741829;82;21695;-61
2021/04/25 17:15:15;;;;;;;17.65;11.20;;;;;;;7.73;71.66;99047.86;1731999;81;21173;-62
2021/04/25 17:17:44;;;;;;;20.85;11.55;;;;;;;7.66;71.52;99040.83;1714207;82;21180;-59
2021/04/25 17:20:16;;;;;;;29.12;15.93;;;;;;;7.58;71.46;99040.27;1716251;82;21290;-58
2021/04/25 17:22:47;;;;;;;29.85;15.60;;;;;;;7.50;71.40;99037.90;1749461;81;21145;-58
2021/04/25 17:25:17;;;;;;;23.10;13.22;;;;;;;7.38;71.42;99050.04;1741291;81;21154;-59
2021/04/25 17:27:49;;;;;;;36.97;20.53;;;;;;;7.29;71.54;99050.22;1726195;82;21130;-58
2021/04/25 17:30:22;;;;;;;40.40;23.40;;;;;;;7.20;71.61;99061.13;1726326;82;21292;-58
2021/04/25 17:32:51;;;;;;;32.85;17.02;;;;;;;7.11;71.69;99063.02;1750368;81;21692;-59
2021/04/25 17:35:21;;;;;;;25.52;13.95;;;;;;;7.04;71.65;99063.69;1743503;81;21238;-59
2021/04/25 17:37:52;;;;;;;21.27;12.15;;;;;;;6.98;71.68;99060.97;1761863;81;21598;-59
2021/04/25 17:40:21;;;;;;;17.80;10.68;;;;;;;6.93;71.80;99058.27;1762464;81;21171;-59
2021/04/25 17:42:51;;;;;;;20.27;11.83;;;;;;;6.93;71.96;99063.83;1748314;81;21321;-59
2021/04/25 17:45:20;;;;;;;25.90;15.05;;;;;;;6.95;72.05;99064.32;1751569;81;21290;-59
2021/04/25 17:47:51;;;;;;;29.42;17.95;;;;;;;7.00;72.07;99068.30;1762549;81;21170;-60
2021/04/25 17:50:23;;;;;;;30.95;20.05;;;;;;;7.01;72.05;99064.89;1761991;81;21202;-60
2021/04/25 17:52:52;;;;;;;27.80;17.27;;;;;;;7.01;72.02;99061.05;1742305;81;21247;-58
2021/04/25 17:55:21;;;;;;;19.73;13.43;;;;;;;6.99;71.93;99065.27;1748489;81;21170;-59
2021/04/25 17:57:50;;;;;;;24.00;12.95;;;;;;;6.96;71.77;99072.46;1750149;81;21325;-59
2021/04/25 18:00:24;;;;;;;19.23;12.23;;;;;;;6.90;71.96;99068.88;1740881;81;21175;-59
2021/04/25 18:02:52;;;;;;;17.90;10.35;;;;;;;6.85;71.93;99072.59;1748152;81;21245;-59
2021/04/25 18:05:20;;;;;;;19.35;11.28;;;;;;;6.78;71.98;99068.54;1742395;81;21160;-59
2021/04/25 18:07:51;;;;;;;21.27;11.55;;;;;;;6.73;72.06;99061.99;1759664;81;21321;-59
2021/04/25 18:10:26;;;;;;;17.62;10.88;;;;;;;6.69;72.06;99059.77;1743579;81;21147;-59
2021/04/25 18:12:53;;;;;;;17.48;10.75;;;;;;;6.66;72.12;99058.38;1757840;81;21301;-58
2021/04/25 18:15:22;;;;;;;18.27;10.72;;;;;;;6.65;72.16;99066.91;1741981;81;21195;-58
2021/04/25 18:17:52;;;;;;;17.90;12.03;;;;;;;6.64;72.27;99071.98;1761100;81;21167;-59
2021/04/25 18:20:21;;;;;;;18.77;11.30;;;;;;;6.63;72.43;99069.84;1763482;81;21253;-58
2021/04/25 18:22:49;;;;;;;18.00;11.20;;;;;;;6.63;72.60;99068.55;1748317;81;21187;-58
2021/04/25 18:25:18;;;;;;;21.45;12.70;;;;;;;6.67;72.73;99076.80;1737376;81;21333;-58
2021/04/25 18:27:46;;;;;;;30.95;17.75;;;;;;;6.73;72.88;99082.09;1733116;81;21342;-59
2021/04/25 18:30:18;;;;;;;25.27;15.08;;;;;;;6.78;73.03;99076.23;1737253;81;21310;-58
2021/04/25 18:32:46;;;;;;;20.88;13.28;;;;;;;6.82;73.18;99087.02;1759837;81;21172;-58
2021/04/25 18:35:20;;;;;;;17.87;11.50;;;;;;;6.82;73.14;99081.50;1748085;81;21384;-58
2021/04/25 18:37:51;;;;;;;20.17;10.93;;;;;;;6.83;73.00;99087.48;1743812;81;21107;-58
2021/04/25 18:40:24;;;;;;;20.65;11.73;;;;;;;6.83;72.77;99084.92;1748957;81;21298;-59
2021/04/25 18:42:53;;;;;;;16.62;11.30;;;;;;;6.81;72.73;99087.85;1755367;80;21093;-60
2021/04/25 18:45:26;;;;;;;17.07;10.95;;;;;;;6.78;72.70;99083.92;1729195;81;21190;-58
2021/04/25 18:47:56;;;;;;;24.02;12.93;;;;;;;6.73;72.80;99076.96;1727764;81;21300;-59
2021/04/25 18:50:25;;;;;;;23.12;12.58;;;;;;;6.69;72.88;99082.85;1753512;81;21170;-58
2021/04/25 18:52:55;;;;;;;20.88;12.80;;;;;;;6.66;73.03;99092.99;1754788;80;21126;-59
2021/04/25 18:55:23;;;;;;;21.97;13.72;;;;;;;6.63;73.05;99095.48;1761097;80;21314;-59
2021/04/25 18:57:56;;;;;;;26.15;15.13;;;;;;;6.63;73.12;99098.04;1752381;80;21596;-59
2021/04/25 19:00:30;;;;;;;27.20;17.17;;;;;;;6.64;73.26;99095.06;1760184;80;21153;-58
2021/04/25 19:02:59;;;;;;;31.42;18.42;;;;;;;6.62;73.52;99086.06;1755520;80;21125;-58
2021/04/25 19:05:32;;;;;;;32.40;18.32;;;;;;;6.65;73.81;99084.00;1747436;81;21142;-60
2021/04/25 19:08:00;;;;;;;33.10;19.92;;;;;;;6.69;73.95;99090.93;1750370;80;21320;-59
2021/04/25 19:10:28;;;;;;;36.45;20.65;;;;;;;6.72;74.05;99091.91;1764515;80;21156;-61
2021/04/25 19:12:56;;;;;;;37.60;22.05;;;;;;;6.76;74.06;99091.98;1758589;80;21304;-56
2021/04/25 19:15:25;;;;;;;39.90;23.07;;;;;;;6.74;74.23;99091.55;1762355;80;21153;-57
2021/04/25 19:17:54;;;;;;;35.15;22.80;;;;;;;6.74;74.35;99099.63;1764300;81;21198;-59
2021/04/25 19:20:23;;;;;;;37.88;22.07;;;;;;;6.77;74.46;99093.33;1763418;80;21190;-55
2021/04/25 19:22:54;;;;;;;39.18;22.17;;;;;;;6.78;74.37;99087.77;1765216;80;21297;-56
2021/04/25 19:25:25;;;;;;;37.20;22.00;;;;;;;6.79;74.21;99083.09;1762360;80;21154;-56
2021/04/25 19:27:54;;;;;;;30.70;19.15;;;;;;;6.76;74.10;99077.46;1762907;80;21723;-52
2021/04/25 19:30:24;;;;;;;31.75;18.35;;;;;;;6.73;74.05;99080.80;1761464;81;21185;-53
2021/04/25 19:32:54;;;;;;;26.85;16.05;;;;;;;6.66;73.97;99078.89;1762627;80;21194;-53
2021/04/25 19:35:23;;;;;;;27.20;15.20;;;;;;;6.62;73.96;99083.50;1764156;81;21185;-53
2021/04/25 19:37:51;;;;;;;25.75;15.18;;;;;;;6.59;73.99;99084.70;1763946;80;21126;-51
2021/04/25 19:40:22;;;;;;;27.45;14.47;;;;;;;6.56;74.13;99080.73;1764878;81;21185;-52